createdAt,value
2023-05-12T00:00:20.383Z,86.32
2023-05-12T00:03:28.991Z,87.10
2023-05-12T00:06:37.233Z,86.99
2023-05-12T00:09:46.041Z,86.14
2023-05-12T00:12:55.182Z,86.00
2023-05-12T00:16:04.172Z,86.02
2023-05-12T00:19:12.254Z,85.43
2023-05-12T00:22:27.282Z,84.30
2023-05-12T00:25:28.949Z,84.69
2023-05-12T00:28:43.504Z,84.27
2023-05-12T00:31:51.452Z,83.93
2023-05-12T00:35:06.509Z,84.91
2023-05-12T00:38:08.210Z,84.93
2023-05-12T00:41:23.249Z,83.88
2023-05-12T00:44:31.227Z,85.08
2023-05-12T00:47:39.951Z,86.04
2023-05-12T00:50:48.208Z,86.14
2023-05-12T00:53:57.417Z,85.90
2023-05-12T00:57:05.199Z,85.82
2023-05-12T01:00:20.331Z,86.35
2023-05-12T01:03:22.562Z,84.88
2023-05-12T01:06:45.230Z,86.34
2023-05-12T01:09:53.746Z,85.28
2023-05-12T01:13:01.773Z,85.97
2023-05-12T01:16:11.228Z,85.88
2023-05-12T01:19:34.019Z,87.32
2023-05-12T01:22:49.263Z,86.03
2023-05-12T01:25:59.221Z,86.25
2023-05-12T01:29:21.231Z,86.39
2023-05-12T01:32:29.237Z,86.94
2023-05-12T01:35:44.522Z,85.92
2023-05-12T01:38:46.203Z,86.04
2023-05-12T01:42:01.243Z,86.82
2023-05-12T01:45:02.910Z,87.52
2023-05-12T01:48:17.293Z,86.51
2023-05-12T01:51:25.716Z,88.21
2023-05-12T01:54:34.257Z,89.69
2023-05-12T01:57:49.229Z,88.61
2023-05-12T02:00:58.531Z,89.43
2023-05-12T02:04:06.321Z,89.92
2023-05-12T02:07:15.095Z,90.45
2023-05-12T02:10:23.277Z,91.44
2023-05-12T02:13:38.579Z,91.09
2023-05-12T02:16:40.260Z,92.31
2023-05-12T02:19:55.313Z,90.62
2023-05-12T02:22:57.063Z,91.23
2023-05-12T02:26:11.272Z,91.63
2023-05-12T02:29:19.886Z,91.65
2023-05-12T02:32:34.334Z,92.31
2023-05-12T02:35:35.956Z,91.57
2023-05-12T02:38:50.247Z,91.08
2023-05-12T02:41:58.234Z,91.13
2023-05-12T02:45:14.300Z,92.65
2023-05-12T02:48:15.873Z,91.52
2023-05-12T02:51:30.409Z,91.20
2023-05-12T02:54:32.112Z,91.56
2023-05-12T02:57:46.285Z,92.45
2023-05-12T03:01:06.693Z,92.80
2023-05-12T03:04:25.315Z,92.82
2023-05-12T03:07:33.941Z,93.24
2023-05-12T03:10:43.071Z,92.32
2023-05-12T03:13:50.883Z,92.86
2023-05-12T03:16:59.429Z,93.86
2023-05-12T03:20:14.584Z,93.79
2023-05-12T03:23:22.781Z,93.52
2023-05-12T03:26:31.299Z,93.45
2023-05-12T03:29:53.391Z,93.14
2023-05-12T03:32:55.163Z,93.33
2023-05-12T03:36:12.632Z,92.77
2023-05-12T03:39:14.392Z,93.77
2023-05-12T03:42:29.338Z,94.14
2023-05-12T03:45:37.533Z,93.20
2023-05-12T03:48:45.867Z,93.51
2023-05-12T03:52:00.302Z,93.97
2023-05-12T03:55:09.365Z,93.26
2023-05-12T03:58:17.369Z,93.86
2023-05-12T04:01:33.092Z,94.26
2023-05-12T04:04:34.797Z,94.38
2023-05-12T04:07:49.373Z,93.50
2023-05-12T04:10:57.307Z,93.49
2023-05-12T04:14:05.782Z,93.31
2023-05-12T04:17:14.382Z,93.85
2023-05-12T04:20:22.836Z,93.82
2023-05-12T04:23:31.331Z,92.95
2023-05-12T04:26:40.513Z,94.36
2023-05-12T04:29:48.349Z,93.52
2023-05-12T04:33:10.525Z,93.28
2023-05-12T04:36:18.322Z,93.15
2023-05-12T04:39:28.180Z,93.04
2023-05-12T04:42:43.367Z,92.38
2023-05-12T04:45:59.999Z,92.94
2023-05-12T04:49:08.369Z,93.14
2023-05-12T04:52:16.867Z,93.16
2023-05-12T04:55:26.353Z,93.88
2023-05-12T04:58:43.311Z,93.28
2023-05-12T05:01:45.182Z,92.81
2023-05-12T05:05:00.382Z,93.50
2023-05-12T05:08:09.172Z,92.05
2023-05-12T05:11:24.058Z,92.99
2023-05-12T05:14:32.377Z,92.86
2023-05-12T05:17:47.335Z,93.41
2023-05-12T05:20:58.750Z,92.91
2023-05-12T05:24:14.653Z,92.05
2023-05-12T05:27:16.314Z,91.71
2023-05-12T05:30:39.183Z,92.15
2023-05-12T05:33:47.952Z,92.58
2023-05-12T05:37:02.395Z,93.07
2023-05-12T05:40:04.520Z,92.86
2023-05-12T05:43:19.467Z,93.11
2023-05-12T05:46:21.116Z,91.82
2023-05-12T05:49:35.423Z,90.98
2023-05-12T05:52:43.849Z,92.05
2023-05-12T05:55:58.421Z,91.30
2023-05-12T05:59:01.422Z,91.51
2023-05-12T06:02:16.385Z,92.19
2023-05-12T06:05:31.394Z,91.16
2023-05-12T06:08:39.350Z,91.77
2023-05-12T06:11:54.438Z,92.46
2023-05-12T06:15:05.552Z,91.88
2023-05-12T06:18:20.727Z,91.23
2023-05-12T06:21:39.896Z,90.27
2023-05-12T06:24:48.185Z,92.19
2023-05-12T06:28:01.077Z,91.96
2023-05-12T06:31:15.700Z,90.21
2023-05-12T06:34:31.398Z,89.56
2023-05-12T06:37:33.364Z,91.23
2023-05-12T06:40:51.436Z,91.33
2023-05-12T06:43:59.447Z,92.67
2023-05-12T06:47:10.076Z,92.36
2023-05-12T06:50:18.715Z,91.23
2023-05-12T06:53:34.693Z,90.76
2023-05-12T06:56:39.691Z,91.31
2023-05-12T06:59:56.477Z,89.66
2023-05-12T07:03:01.306Z,88.38
2023-05-12T07:06:17.456Z,90.08
2023-05-12T07:09:39.454Z,87.98
2023-05-12T07:12:47.993Z,88.66
2023-05-12T07:16:02.476Z,88.33
2023-05-12T07:19:11.794Z,87.74
2023-05-12T07:22:20.425Z,89.18
2023-05-12T07:25:36.403Z,88.86
2023-05-12T07:28:48.962Z,88.04
2023-05-12T07:32:11.647Z,87.15
2023-05-12T07:35:21.914Z,89.14
2023-05-12T07:38:30.510Z,87.08
2023-05-12T07:41:40.698Z,87.14
2023-05-12T07:44:49.423Z,88.03
2023-05-12T07:48:01.150Z,87.93
2023-05-12T07:51:10.427Z,85.36
2023-05-12T07:54:32.778Z,86.72
2023-05-12T07:57:48.638Z,86.93
2023-05-12T08:01:06.438Z,87.37
2023-05-12T08:04:08.349Z,84.89
2023-05-12T08:07:23.761Z,84.21
2023-05-12T08:10:26.785Z,84.66
2023-05-12T08:13:44.550Z,83.25
2023-05-12T08:16:52.534Z,85.12
2023-05-12T08:20:24.748Z,81.23
2023-05-12T08:23:39.522Z,81.75
2023-05-12T08:26:47.954Z,79.48
2023-05-12T08:30:05.441Z,79.96
2023-05-12T08:33:13.465Z,80.49
2023-05-12T08:36:43.444Z,79.65
2023-05-12T08:39:51.753Z,77.09
2023-05-12T08:43:21.300Z,78.02
2023-05-12T08:46:23.649Z,77.84
2023-05-12T08:49:39.441Z,77.76
2023-05-12T08:52:48.494Z,78.60
2023-05-12T08:59:13.540Z,80.75
2023-05-12T09:02:41.145Z,82.01
2023-05-12T09:05:57.709Z,82.13
2023-05-12T09:09:08.387Z,81.27
2023-05-12T09:12:25.838Z,81.64
2023-05-12T09:15:35.432Z,82.46
2023-05-12T09:19:06.863Z,83.53
2023-05-12T09:22:18.482Z,85.80
2023-05-12T09:25:34.479Z,86.50
2023-05-12T09:28:38.317Z,89.09
2023-05-12T09:32:02.989Z,90.04
2023-05-12T09:35:11.082Z,90.80
2023-05-12T09:38:26.278Z,91.56
2023-05-12T09:41:37.938Z,91.90
2023-05-12T09:44:46.137Z,93.59
2023-05-12T09:48:00.574Z,94.32
2023-05-12T09:51:08.518Z,95.12
2023-05-12T09:54:26.625Z,97.37
2023-05-12T09:57:34.597Z,95.54
2023-05-12T10:01:17.816Z,95.69
2023-05-12T10:04:13.477Z,97.07
2023-05-12T10:07:32.587Z,97.35
2023-05-12T10:10:40.609Z,96.34
2023-05-12T10:13:52.858Z,96.83
2023-05-12T10:17:04.631Z,97.13
2023-05-12T10:20:19.537Z,97.53
2023-05-12T10:23:29.588Z,98.65
2023-05-12T10:26:45.678Z,97.56
2023-05-12T10:29:48.283Z,97.37
2023-05-12T10:33:02.626Z,98.98
2023-05-12T10:36:25.681Z,99.16
2023-05-12T10:40:04.301Z,98.99
2023-05-12T10:43:33.605Z,99.58
2023-05-12T10:46:50.074Z,99.39
2023-05-12T10:49:56.894Z,99.59
2023-05-12T10:53:11.533Z,99.60
2023-05-12T10:56:19.734Z,97.84
2023-05-12T10:59:37.967Z,97.32
2023-05-12T11:02:51.408Z,97.88
2023-05-12T11:06:10.485Z,96.73
2023-05-12T11:09:27.258Z,96.16
2023-05-12T11:12:45.442Z,95.41
2023-05-12T11:15:48.287Z,93.84
2023-05-12T11:19:12.706Z,95.66
2023-05-12T11:22:24.852Z,96.54
2023-05-12T11:25:40.215Z,97.34
2023-05-12T11:28:51.136Z,97.16
2023-05-12T11:32:08.587Z,95.55
2023-05-12T11:35:20.156Z,95.07
2023-05-12T11:38:28.834Z,96.82
2023-05-12T11:41:43.549Z,95.80
2023-05-12T11:48:25.690Z,95.27
2023-05-12T11:51:36.693Z,94.56
2023-05-12T11:55:04.527Z,93.96
2023-05-12T11:58:12.614Z,94.36
2023-05-12T12:01:28.541Z,94.47
2023-05-12T12:04:42.649Z,94.21
2023-05-12T12:08:10.736Z,95.00
2023-05-12T12:11:13.050Z,94.49
2023-05-12T12:14:27.574Z,93.21
2023-05-12T12:17:36.286Z,92.72
2023-05-12T12:20:46.137Z,92.99
2023-05-12T12:24:01.312Z,93.37
2023-05-12T12:27:03.493Z,93.60
2023-05-12T12:30:19.858Z,93.76
2023-05-12T12:33:28.705Z,94.54
2023-05-12T12:36:44.581Z,94.56
2023-05-12T12:39:53.759Z,96.04
2023-05-12T12:43:09.365Z,96.33
2023-05-12T12:46:17.883Z,96.85
2023-05-12T12:49:36.669Z,95.57
2023-05-12T12:52:51.590Z,94.69
2023-05-12T12:56:02.885Z,94.24
2023-05-12T12:59:11.120Z,94.04
2023-05-12T13:02:32.698Z,94.55
2023-05-12T13:05:43.074Z,94.68
2023-05-12T13:08:51.857Z,94.60
2023-05-12T13:12:00.130Z,94.60
2023-05-12T13:15:08.937Z,94.40
2023-05-12T13:18:17.134Z,94.92
2023-05-12T13:21:31.687Z,95.34
2023-05-12T13:24:39.584Z,96.72
2023-05-12T13:27:48.057Z,97.36
2023-05-12T13:30:59.970Z,97.00
2023-05-12T13:34:23.996Z,97.23
2023-05-12T13:37:32.641Z,96.81
2023-05-12T13:40:47.906Z,95.94
2023-05-12T13:43:52.794Z,97.17
2023-05-12T13:47:11.674Z,95.55
2023-05-12T13:50:28.317Z,95.72
2023-05-12T13:53:37.030Z,96.06
2023-05-12T13:56:52.635Z,96.13
2023-05-12T14:00:01.615Z,96.91
2023-05-12T14:03:10.193Z,97.32
2023-05-12T14:06:19.454Z,96.51
2023-05-12T14:09:27.952Z,96.31
2023-05-12T14:12:42.691Z,95.52
2023-05-12T14:15:49.263Z,97.65
2023-05-12T14:19:08.154Z,97.27
2023-05-12T14:22:26.403Z,98.61
2023-05-12T14:25:35.985Z,98.06
2023-05-12T14:28:44.501Z,97.94
2023-05-12T14:31:59.713Z,97.37
2023-05-12T14:35:08.544Z,99.30
2023-05-12T14:38:23.881Z,100.00
2023-05-12T14:41:31.653Z,99.74
2023-05-12T14:44:47.565Z,100.00
2023-05-12T14:47:58.957Z,100.00
2023-05-12T14:51:07.323Z,100.00
2023-05-12T14:54:25.314Z,100.00
2023-05-12T14:57:34.228Z,99.41
2023-05-12T15:00:42.697Z,99.92
2023-05-12T15:03:52.030Z,100.00
2023-05-12T15:07:06.694Z,99.41
2023-05-12T15:10:14.656Z,97.56
2023-05-12T15:13:29.788Z,96.62
2023-05-12T15:16:38.365Z,96.59
2023-05-12T15:19:48.690Z,97.87
2023-05-12T15:23:04.764Z,97.39
2023-05-12T15:26:31.308Z,98.47
2023-05-12T15:29:55.641Z,99.81
2023-05-12T15:33:18.687Z,99.74
2023-05-12T15:36:34.007Z,99.75
2023-05-12T15:39:35.678Z,99.43
2023-05-12T15:42:53.664Z,99.11
2023-05-12T15:45:56.182Z,100.00
2023-05-12T15:49:11.682Z,99.36
2023-05-12T15:52:13.391Z,99.49
2023-05-12T15:55:32.806Z,100.00
2023-05-12T16:02:03.397Z,100.00
2023-05-12T16:05:18.942Z,100.00
2023-05-12T16:08:20.882Z,100.00
2023-05-12T16:11:38.702Z,99.60
2023-05-12T16:14:46.675Z,100.00
2023-05-12T16:17:55.591Z,100.00
2023-05-12T16:21:04.721Z,99.00
2023-05-12T16:24:16.117Z,98.82
2023-05-12T16:27:30.680Z,98.71
2023-05-12T16:31:06.146Z,98.71
2023-05-12T16:34:20.749Z,99.91
2023-05-12T16:37:35.747Z,99.36
2023-05-12T16:40:50.698Z,100.00
2023-05-12T16:44:02.469Z,100.00
2023-05-12T16:47:10.724Z,100.00
2023-05-12T16:50:25.997Z,98.92
2023-05-12T16:53:27.743Z,99.39
2023-05-12T16:59:58.447Z,100.00
2023-05-12T17:03:12.821Z,100.00
2023-05-12T17:06:20.858Z,99.81
2023-05-12T17:09:35.745Z,100.00
2023-05-12T17:12:43.824Z,100.00
2023-05-12T17:15:52.786Z,100.00
2023-05-12T17:22:20.778Z,100.00
2023-05-12T17:25:29.770Z,100.00
2023-05-12T17:28:38.818Z,100.00
2023-05-12T17:31:56.884Z,100.00
2023-05-12T17:35:06.221Z,100.00
2023-05-12T17:38:26.938Z,100.00
2023-05-12T17:41:35.779Z,100.00
2023-05-12T17:44:50.757Z,100.00
2023-05-12T17:47:59.643Z,100.00
2023-05-12T17:51:14.745Z,100.00
2023-05-12T17:54:32.799Z,100.00
2023-05-12T17:57:34.529Z,100.00
2023-05-12T18:00:52.822Z,100.00
2023-05-12T18:04:17.969Z,100.00
2023-05-12T18:07:29.323Z,100.00
2023-05-12T18:10:43.823Z,100.00
2023-05-12T18:13:45.509Z,100.00
2023-05-12T18:16:59.784Z,100.00
2023-05-12T18:20:01.571Z,100.00
2023-05-12T18:23:16.015Z,100.00
2023-05-12T18:26:24.085Z,100.00
2023-05-12T18:29:32.314Z,100.00
2023-05-12T18:32:53.865Z,100.00
2023-05-12T18:36:03.633Z,100.00
2023-05-12T18:39:18.791Z,100.00
2023-05-12T18:42:33.898Z,99.60
2023-05-12T18:45:36.143Z,100.00
2023-05-12T18:48:50.763Z,100.00
2023-05-12T18:51:52.409Z,99.66
2023-05-12T18:55:06.772Z,100.00
2023-05-12T18:58:16.684Z,100.00
2023-05-12T19:01:24.800Z,100.00
2023-05-12T19:04:33.290Z,100.00
2023-05-12T19:07:41.823Z,100.00
2023-05-12T19:10:56.756Z,100.00
2023-05-12T19:14:07.259Z,100.00
2023-05-12T19:17:15.761Z,100.00
2023-05-12T19:20:25.120Z,100.00
2023-05-12T19:23:33.777Z,100.00
2023-05-12T19:26:42.462Z,100.00
2023-05-12T19:29:56.818Z,100.00
2023-05-12T19:33:18.913Z,100.00
2023-05-12T19:36:20.820Z,100.00
2023-05-12T19:39:35.831Z,100.00
2023-05-12T19:42:44.103Z,100.00
2023-05-12T19:46:01.006Z,100.00
2023-05-12T19:49:08.809Z,100.00
2023-05-12T19:52:23.809Z,100.00
2023-05-12T19:55:25.550Z,100.00
2023-05-12T19:58:39.855Z,100.00
2023-05-12T20:01:48.506Z,100.00
2023-05-12T20:04:56.832Z,100.00
2023-05-12T20:08:11.792Z,100.00
2023-05-12T20:11:27.176Z,100.00
2023-05-12T20:14:36.288Z,100.00
2023-05-12T20:17:44.922Z,100.00
2023-05-12T20:20:59.806Z,100.00
2023-05-12T20:24:01.415Z,100.00
2023-05-12T20:27:18.831Z,100.00
2023-05-12T20:30:20.470Z,100.00
2023-05-12T20:33:41.876Z,100.00
2023-05-12T20:36:44.288Z,100.00
2023-05-12T20:39:58.886Z,100.00
2023-05-12T20:43:08.549Z,100.00
2023-05-12T20:46:16.894Z,100.00
2023-05-12T20:49:31.978Z,100.00
2023-05-12T20:52:42.825Z,100.00
2023-05-12T20:55:57.830Z,100.00
2023-05-12T20:59:06.345Z,100.00
2023-05-12T21:02:15.662Z,100.00
2023-05-12T21:05:25.551Z,100.00
2023-05-12T21:08:39.800Z,100.00
2023-05-12T21:11:55.081Z,100.00
2023-05-12T21:14:56.686Z,100.00
2023-05-12T21:18:12.225Z,100.00
2023-05-12T21:21:20.953Z,100.00
2023-05-12T21:24:35.882Z,100.00
2023-05-12T21:27:38.897Z,100.00
2023-05-12T21:30:53.834Z,100.00
2023-05-12T21:34:09.096Z,100.00
2023-05-12T21:37:18.201Z,100.00
2023-05-12T21:40:32.833Z,100.00
2023-05-12T21:43:41.338Z,100.00
2023-05-12T21:46:55.851Z,100.00
2023-05-12T21:50:11.178Z,100.00
2023-05-12T21:53:18.978Z,100.00
2023-05-12T21:56:33.906Z,100.00
2023-05-12T21:59:35.584Z,100.00
2023-05-12T22:02:49.964Z,100.00
2023-05-12T22:05:51.792Z,100.00
2023-05-12T22:09:06.877Z,100.00
2023-05-12T22:12:15.924Z,100.00
2023-05-12T22:15:24.404Z,100.00
2023-05-12T22:18:32.895Z,100.00
2023-05-12T22:21:50.187Z,100.00
2023-05-12T22:24:57.935Z,100.00
2023-05-12T22:28:07.560Z,100.00
2023-05-12T22:31:15.897Z,100.00
2023-05-12T22:34:37.923Z,100.00
2023-05-12T22:37:39.601Z,100.00
2023-05-12T22:40:53.915Z,100.00
2023-05-12T22:43:56.081Z,100.00
2023-05-12T22:47:15.150Z,100.00
2023-05-12T22:50:24.162Z,100.00
2023-05-12T22:53:32.382Z,100.00
2023-05-12T22:56:47.280Z,100.00
2023-05-12T22:59:49.953Z,100.00
2023-05-12T23:03:04.943Z,100.00
2023-05-12T23:06:07.787Z,100.00
2023-05-12T23:09:23.654Z,100.00
2023-05-12T23:12:25.346Z,100.00
2023-05-12T23:15:39.895Z,100.00
2023-05-12T23:18:41.648Z,100.00
2023-05-12T23:21:56.207Z,100.00
2023-05-12T23:25:07.940Z,100.00
2023-05-12T23:28:15.996Z,100.00
2023-05-12T23:31:37.958Z,100.00
2023-05-12T23:34:46.982Z,100.00
2023-05-12T23:38:01.913Z,100.00
2023-05-12T23:41:10.862Z,100.00
2023-05-12T23:44:25.914Z,100.00
2023-05-12T23:47:34.007Z,100.00
2023-05-12T23:50:42.406Z,100.00
2023-05-12T23:53:50.940Z,100.00
2023-05-12T23:56:59.541Z,100.00
